createdAt,value
2022-11-19T00:00:02.012Z,98584.63
2022-11-19T00:00:36.222Z,98595.00
2022-11-19T00:01:37.622Z,98595.59
2022-11-19T00:02:09.554Z,98595.12
2022-11-19T00:02:41.477Z,98598.91
2022-11-19T00:03:18.861Z,98593.78
2022-11-19T00:03:52.938Z,98606.34
2022-11-19T00:04:25.285Z,98601.38
2022-11-19T00:04:57.171Z,98599.78
2022-11-19T00:05:29.096Z,98598.78
2022-11-19T00:06:09.538Z,98603.59
2022-11-19T00:06:41.535Z,98612.34
2022-11-19T00:07:13.447Z,98605.56
2022-11-19T00:07:45.358Z,98607.22
2022-11-19T00:08:20.878Z,98602.66
2022-11-19T00:08:53.455Z,98601.28
2022-11-19T00:09:25.470Z,98601.25
2022-11-19T00:09:57.350Z,98599.03
2022-11-19T00:10:29.190Z,98598.25
2022-11-19T00:11:49.571Z,98598.09
2022-11-19T00:12:40.440Z,98600.09
2022-11-19T00:13:14.719Z,98587.62
2022-11-19T00:13:50.189Z,98579.16
2022-11-19T00:14:23.764Z,98580.63
2022-11-19T00:14:55.694Z,98589.38
2022-11-19T00:15:27.544Z,98580.63
2022-11-19T00:16:04.847Z,98582.97
2022-11-19T00:16:36.704Z,98590.28
2022-11-19T00:17:08.610Z,98601.78
2022-11-19T00:17:40.732Z,98601.00
2022-11-19T00:18:12.585Z,98595.59
2022-11-19T00:18:44.407Z,98601.78
2022-11-19T00:19:16.403Z,98602.78
2022-11-19T00:19:48.532Z,98598.19
2022-11-19T00:20:20.450Z,98605.22
2022-11-19T00:20:52.279Z,98604.81
2022-11-19T00:21:24.115Z,98605.84
2022-11-19T00:21:55.934Z,98604.03
2022-11-19T00:22:27.754Z,98612.00
2022-11-19T00:23:00.313Z,98609.59
2022-11-19T00:23:32.324Z,98609.41
2022-11-19T00:24:04.342Z,98620.97
2022-11-19T00:24:36.182Z,98622.84
2022-11-19T00:25:08.290Z,98624.47
2022-11-19T00:25:40.115Z,98629.59
2022-11-19T00:26:13.979Z,98629.22
2022-11-19T00:26:45.827Z,98634.59
2022-11-19T00:27:17.650Z,98635.97
2022-11-19T00:27:49.891Z,98636.94
2022-11-19T00:28:22.011Z,98628.75
2022-11-19T00:28:55.093Z,98628.94
2022-11-19T00:29:26.938Z,98632.75
2022-11-19T00:29:58.805Z,98632.00
2022-11-19T00:30:47.406Z,98635.97
2022-11-19T00:31:19.768Z,98635.16
2022-11-19T00:31:51.650Z,98639.53
2022-11-19T00:32:23.516Z,98632.56
2022-11-19T00:32:56.369Z,98629.19
2022-11-19T00:33:29.491Z,98634.97
2022-11-19T00:34:01.372Z,98632.56
2022-11-19T00:34:33.263Z,98632.78
2022-11-19T00:35:06.080Z,98631.59
2022-11-19T00:35:37.948Z,98639.53
2022-11-19T00:36:12.770Z,98630.97
2022-11-19T00:36:44.609Z,98636.34
2022-11-19T00:37:16.446Z,98633.62
2022-11-19T00:37:48.270Z,98646.00
2022-11-19T00:38:20.071Z,98646.41
2022-11-19T00:38:52.200Z,98646.78
2022-11-19T00:39:24.036Z,98633.84
2022-11-19T00:39:56.584Z,98640.81
2022-11-19T00:40:28.423Z,98647.19
2022-11-19T00:41:00.357Z,98641.19
2022-11-19T00:41:32.248Z,98644.59
2022-11-19T00:42:04.208Z,98643.59
2022-11-19T00:42:36.009Z,98650.38
2022-11-19T00:43:26.675Z,98644.22
2022-11-19T00:43:58.857Z,98656.78
2022-11-19T00:44:36.789Z,98649.84
2022-11-19T00:45:09.682Z,98648.69
2022-11-19T00:45:44.505Z,98657.22
2022-11-19T00:46:20.505Z,98645.28
2022-11-19T00:46:52.634Z,98661.22
2022-11-19T00:47:24.478Z,98663.59
2022-11-19T00:47:56.302Z,98658.81
2022-11-19T00:48:28.163Z,98663.00
2022-11-19T00:49:00.400Z,98662.78
2022-11-19T00:49:32.346Z,98663.19
2022-11-19T00:50:04.351Z,98665.16
2022-11-19T00:50:36.212Z,98661.22
2022-11-19T00:51:09.624Z,98661.59
2022-11-19T00:51:41.482Z,98663.19
2022-11-19T00:52:13.325Z,98661.56
2022-11-19T00:52:45.154Z,98669.75
2022-11-19T00:53:17.151Z,98666.41
2022-11-19T00:53:49.220Z,98667.03
2022-11-19T00:54:21.404Z,98669.81
2022-11-19T00:54:53.255Z,98666.06
2022-11-19T00:55:25.116Z,98672.59
2022-11-19T00:56:01.461Z,98664.63
2022-11-19T00:56:33.336Z,98668.81
2022-11-19T00:57:05.224Z,98671.56
2022-11-19T00:57:37.052Z,98666.41
2022-11-19T00:58:08.894Z,98668.59
2022-11-19T00:58:41.685Z,98667.19
2022-11-19T00:59:13.700Z,98673.94
2022-11-19T00:59:45.846Z,98677.31
2022-11-19T01:00:17.828Z,98676.75
2022-11-19T01:00:51.454Z,98672.00
2022-11-19T01:01:25.362Z,98670.19
2022-11-19T01:01:57.378Z,98666.22
2022-11-19T01:02:29.231Z,98670.00
2022-11-19T01:03:01.099Z,98675.78
2022-11-19T01:03:34.008Z,98675.97
2022-11-19T01:04:06.395Z,98682.34
2022-11-19T01:04:38.272Z,98673.56
2022-11-19T01:05:10.462Z,98684.16
2022-11-19T01:05:42.367Z,98683.34
2022-11-19T01:06:19.068Z,98680.56
2022-11-19T01:06:51.672Z,98680.56
2022-11-19T01:07:23.529Z,98683.56
2022-11-19T01:07:55.362Z,98684.38
2022-11-19T01:08:27.711Z,98684.56
2022-11-19T01:08:59.632Z,98688.53
2022-11-19T01:09:31.455Z,98688.53
2022-11-19T01:10:03.604Z,98683.97
2022-11-19T01:10:35.891Z,98685.94
2022-11-19T01:11:13.155Z,98686.56
2022-11-19T01:11:44.997Z,98686.34
2022-11-19T01:12:16.821Z,98691.13
2022-11-19T01:13:07.112Z,98687.75
2022-11-19T01:13:39.385Z,98691.13
2022-11-19T01:14:11.275Z,98694.50
2022-11-19T01:14:43.184Z,98693.91
2022-11-19T01:15:15.082Z,98692.53
2022-11-19T01:15:51.028Z,98688.75
2022-11-19T01:16:27.074Z,98691.13
2022-11-19T01:16:59.025Z,98695.13
2022-11-19T01:17:30.907Z,98700.09
2022-11-19T01:18:02.771Z,98694.50
2022-11-19T01:18:36.136Z,98697.87
2022-11-19T01:19:10.651Z,98695.50
2022-11-19T01:19:42.508Z,98706.25
2022-11-19T01:20:14.931Z,98702.47
2022-11-19T01:20:48.033Z,98705.87
2022-11-19T01:21:22.116Z,98706.25
2022-11-19T01:21:54.049Z,98703.28
2022-11-19T01:22:25.846Z,98708.62
2022-11-19T01:22:57.741Z,98706.66
2022-11-19T01:23:29.661Z,98713.22
2022-11-19T01:24:02.396Z,98714.41
2022-11-19T01:24:34.279Z,98720.78
2022-11-19T01:25:06.455Z,98718.00
2022-11-19T01:25:38.783Z,98724.19
2022-11-19T01:26:12.654Z,98730.94
2022-11-19T01:26:46.017Z,98725.78
2022-11-19T01:27:18.153Z,98730.97
2022-11-19T01:27:50.028Z,98733.75
2022-11-19T01:28:21.904Z,98730.97
2022-11-19T01:28:54.495Z,98732.75
2022-11-19T01:29:26.853Z,98737.91
2022-11-19T01:29:58.694Z,98736.09
2022-11-19T01:30:31.048Z,98741.47
2022-11-19T01:31:20.703Z,98740.88
2022-11-19T01:31:52.864Z,98746.66
2022-11-19T01:32:24.745Z,98746.06
2022-11-19T01:32:56.615Z,98747.28
2022-11-19T01:33:28.489Z,98747.84
2022-11-19T01:34:00.577Z,98745.25
2022-11-19T01:34:32.423Z,98743.69
2022-11-19T01:35:05.052Z,98741.28
2022-11-19T01:35:37.307Z,98742.87
2022-11-19T01:36:15.540Z,98750.03
2022-11-19T01:36:47.422Z,98746.25
2022-11-19T01:37:19.598Z,98747.66
2022-11-19T01:37:52.902Z,98749.84
2022-11-19T01:38:24.816Z,98753.66
2022-11-19T01:38:57.533Z,98755.59
2022-11-19T01:39:29.402Z,98752.03
2022-11-19T01:40:01.285Z,98754.44
2022-11-19T01:40:40.370Z,98759.00
2022-11-19T01:41:12.209Z,98756.41
2022-11-19T01:41:44.047Z,98757.81
2022-11-19T01:42:49.714Z,98752.44
2022-11-19T01:43:47.890Z,98755.62
2022-11-19T01:44:56.482Z,98755.81
2022-11-19T01:45:40.404Z,98750.47
2022-11-19T01:46:14.680Z,98750.03
2022-11-19T01:46:46.507Z,98744.88
2022-11-19T01:47:18.454Z,98744.47
2022-11-19T01:47:52.638Z,98748.88
2022-11-19T01:48:29.989Z,98739.50
2022-11-19T01:49:12.607Z,98743.66
2022-11-19T01:49:44.511Z,98737.09
2022-11-19T01:50:16.986Z,98739.66
2022-11-19T01:50:57.254Z,98749.59
2022-11-19T01:51:47.264Z,98752.38
2022-11-19T01:52:19.078Z,98756.59
2022-11-19T01:52:51.510Z,98753.63
2022-11-19T01:53:29.214Z,98759.59
2022-11-19T01:54:42.310Z,98758.19
2022-11-19T01:55:14.502Z,98769.16
2022-11-19T01:55:47.659Z,98763.56
2022-11-19T01:56:22.405Z,98756.00
2022-11-19T01:56:58.230Z,98757.22
2022-11-19T01:57:30.050Z,98757.94
2022-11-19T01:58:03.709Z,98756.38
2022-11-19T01:58:40.115Z,98759.59
2022-11-19T01:59:17.448Z,98759.13
2022-11-19T01:59:52.900Z,98755.97
2022-11-19T02:00:25.150Z,98755.59
2022-11-19T02:00:57.747Z,98763.16
2022-11-19T02:01:31.845Z,98760.38
2022-11-19T02:02:03.714Z,98760.97
2022-11-19T02:02:35.749Z,98762.78
2022-11-19T02:03:07.816Z,98768.75
2022-11-19T02:03:40.658Z,98764.97
2022-11-19T02:04:15.296Z,98765.97
2022-11-19T02:04:48.564Z,98769.13
2022-11-19T02:05:21.067Z,98769.13
2022-11-19T02:05:53.864Z,98767.91
2022-11-19T02:06:25.700Z,98771.06
2022-11-19T02:06:58.223Z,98777.81
2022-11-19T02:07:34.342Z,98776.59
2022-11-19T02:08:09.474Z,98773.84
2022-11-19T02:08:45.548Z,98772.28
2022-11-19T02:09:17.884Z,98775.88
2022-11-19T02:09:50.644Z,98774.06
2022-11-19T02:10:48.098Z,98784.22
2022-11-19T02:12:02.929Z,98784.66
2022-11-19T02:12:35.018Z,98788.00
2022-11-19T02:13:39.324Z,98791.56
2022-11-19T02:14:27.913Z,98792.75
2022-11-19T02:15:47.772Z,98792.38
2022-11-19T02:16:32.272Z,98797.19
2022-11-19T02:17:04.092Z,98797.56
2022-11-19T02:17:50.331Z,98798.75
2022-11-19T02:18:39.169Z,98803.84
2022-11-19T02:19:31.950Z,98805.00
2022-11-19T02:20:25.346Z,98805.59
2022-11-19T02:20:59.803Z,98808.19
2022-11-19T02:21:56.298Z,98813.97
2022-11-19T02:22:45.651Z,98809.63
2022-11-19T02:23:46.153Z,98816.00
2022-11-19T02:24:24.322Z,98816.78
2022-11-19T02:25:18.772Z,98811.22
2022-11-19T02:26:24.226Z,98815.19
2022-11-19T02:27:11.244Z,98816.38
2022-11-19T02:27:56.859Z,98823.19
2022-11-19T02:28:39.266Z,98824.75
2022-11-19T02:29:40.901Z,98813.16
2022-11-19T02:30:16.209Z,98817.47
2022-11-19T02:30:54.177Z,98813.47
2022-11-19T02:31:39.474Z,98816.22
2022-11-19T02:32:19.127Z,98817.69
2022-11-19T02:32:59.427Z,98817.22
2022-11-19T02:34:13.612Z,98817.53
2022-11-19T02:34:57.701Z,98827.47
2022-11-19T02:36:01.060Z,98827.87
2022-11-19T02:36:47.376Z,98829.88
2022-11-19T02:37:31.936Z,98827.94
2022-11-19T02:38:44.107Z,98843.53
2022-11-19T02:39:30.899Z,98833.03
2022-11-19T02:40:23.742Z,98832.69
2022-11-19T02:41:34.610Z,98836.13
2022-11-19T02:42:27.613Z,98841.22
2022-11-19T02:43:16.794Z,98844.84
2022-11-19T02:44:12.788Z,98848.50
2022-11-19T02:45:02.208Z,98837.19
2022-11-19T02:45:47.668Z,98838.00
2022-11-19T02:46:19.850Z,98830.22
2022-11-19T02:46:53.844Z,98835.72
2022-11-19T02:47:41.798Z,98830.16
2022-11-19T02:48:40.181Z,98834.16
2022-11-19T02:49:12.945Z,98836.78
2022-11-19T02:49:45.322Z,98846.09
2022-11-19T02:50:27.567Z,98848.03
2022-11-19T02:51:02.698Z,98846.97
2022-11-19T02:51:35.059Z,98850.72
2022-11-19T02:52:09.195Z,98851.03
2022-11-19T02:52:43.852Z,98853.72
2022-11-19T02:53:16.095Z,98864.50
2022-11-19T02:53:48.357Z,98861.22
2022-11-19T02:54:20.239Z,98858.72
2022-11-19T02:54:53.260Z,98866.41
2022-11-19T02:55:25.747Z,98860.66
2022-11-19T02:56:12.494Z,98867.03
2022-11-19T02:56:52.995Z,98866.47
2022-11-19T02:57:24.888Z,98860.69
2022-11-19T02:58:02.570Z,98864.81
2022-11-19T02:58:56.374Z,98866.78
2022-11-19T02:59:50.884Z,98866.94
2022-11-19T03:00:42.161Z,98873.56
2022-11-19T03:01:34.423Z,98875.38
2022-11-19T03:02:27.469Z,98874.22
2022-11-19T03:03:24.673Z,98882.28
2022-11-19T03:04:14.938Z,98889.78
2022-11-19T03:04:46.793Z,98887.19
2022-11-19T03:05:21.939Z,98896.53
2022-11-19T03:06:00.163Z,98896.13
2022-11-19T03:06:34.578Z,98900.09
2022-11-19T03:07:13.227Z,98901.22
2022-11-19T03:07:45.460Z,98900.06
2022-11-19T03:08:17.934Z,98898.41
2022-11-19T03:08:49.860Z,98909.53
2022-11-19T03:09:23.410Z,98907.56
2022-11-19T03:09:59.914Z,98895.31
2022-11-19T03:10:54.669Z,98902.47
2022-11-19T03:11:29.471Z,98892.47
2022-11-19T03:12:53.412Z,98896.06
2022-11-19T03:13:47.874Z,98887.84
2022-11-19T03:14:44.788Z,98890.19
2022-11-19T03:15:44.321Z,98888.37
2022-11-19T03:16:43.850Z,98888.41
2022-11-19T03:17:30.033Z,98891.78
2022-11-19T03:18:07.432Z,98886.34
2022-11-19T03:18:50.861Z,98880.78
2022-11-19T03:19:37.670Z,98892.59
2022-11-19T03:20:30.159Z,98891.66
2022-11-19T03:21:07.941Z,98890.50
2022-11-19T03:21:47.792Z,98886.91
2022-11-19T03:22:42.088Z,98895.25
2022-11-19T03:23:26.086Z,98895.31
2022-11-19T03:24:02.833Z,98894.16
2022-11-19T03:24:41.660Z,98902.16
2022-11-19T03:25:22.213Z,98906.62
2022-11-19T03:25:59.503Z,98912.25
2022-11-19T03:26:36.424Z,98908.09
2022-11-19T03:27:20.821Z,98911.66
2022-11-19T03:28:03.515Z,98917.19
2022-11-19T03:28:38.372Z,98915.78
2022-11-19T03:29:13.896Z,98917.81
2022-11-19T03:29:49.754Z,98919.22
2022-11-19T03:30:21.942Z,98916.25
2022-11-19T03:30:56.284Z,98914.53
2022-11-19T03:31:29.970Z,98923.06
2022-11-19T03:32:09.274Z,98924.56
2022-11-19T03:32:48.857Z,98925.87
2022-11-19T03:33:29.986Z,98930.75
2022-11-19T03:34:09.888Z,98931.44
2022-11-19T03:34:45.253Z,98930.66
2022-11-19T03:35:21.176Z,98937.88
2022-11-19T03:35:58.241Z,98938.50
2022-11-19T03:36:41.866Z,98931.97
2022-11-19T03:37:17.574Z,98934.78
2022-11-19T03:37:53.014Z,98936.16
2022-11-19T03:38:36.603Z,98931.75
2022-11-19T03:39:20.685Z,98942.19
2022-11-19T03:39:55.972Z,98940.59
2022-11-19T03:40:31.503Z,98940.63
2022-11-19T03:41:06.318Z,98941.47
2022-11-19T03:41:40.478Z,98947.34
2022-11-19T03:42:16.063Z,98949.00
2022-11-19T03:42:52.476Z,98950.19
2022-11-19T03:43:31.582Z,98954.00
2022-11-19T03:44:08.851Z,98945.62
2022-11-19T03:44:47.589Z,98946.84
2022-11-19T03:45:24.770Z,98943.81
2022-11-19T03:45:58.274Z,98944.41
2022-11-19T03:46:34.885Z,98945.78
2022-11-19T03:47:16.055Z,98944.16
2022-11-19T03:47:50.372Z,98942.16
2022-11-19T03:48:23.569Z,98939.38
2022-11-19T03:48:59.217Z,98947.88
2022-11-19T03:49:37.584Z,98945.38
2022-11-19T03:50:21.640Z,98947.63
2022-11-19T03:51:19.670Z,98946.34
2022-11-19T03:52:04.888Z,98948.25
2022-11-19T03:52:36.825Z,98938.41
2022-11-19T03:53:08.902Z,98936.13
2022-11-19T03:53:40.808Z,98932.81
2022-11-19T03:54:12.757Z,98928.06
2022-11-19T03:54:45.111Z,98929.34
2022-11-19T03:55:17.241Z,98931.50
2022-11-19T03:56:00.434Z,98924.44
2022-11-19T03:56:37.582Z,98924.16
2022-11-19T03:57:12.674Z,98928.66
2022-11-19T03:57:44.921Z,98931.12
2022-11-19T03:58:16.810Z,98928.31
2022-11-19T03:58:48.723Z,98928.00
2022-11-19T03:59:24.173Z,98931.91
2022-11-19T03:59:59.729Z,98935.69
2022-11-19T04:00:32.113Z,98935.34
2022-11-19T04:01:04.254Z,98932.22
2022-11-19T04:01:36.875Z,98938.25
2022-11-19T04:02:11.087Z,98943.84
2022-11-19T04:02:43.001Z,98943.13
2022-11-19T04:03:14.870Z,98937.97
2022-11-19T04:04:06.676Z,98940.38
2022-11-19T04:04:39.006Z,98942.66
2022-11-19T04:05:10.929Z,98949.06
2022-11-19T04:05:42.800Z,98953.44
2022-11-19T04:06:14.938Z,98953.44
2022-11-19T04:06:46.783Z,98954.47
2022-11-19T04:07:22.108Z,98961.47
2022-11-19T04:07:54.012Z,98955.50
2022-11-19T04:08:26.115Z,98960.88
2022-11-19T04:08:57.984Z,98960.50
2022-11-19T04:09:29.824Z,98958.38
2022-11-19T04:10:01.716Z,98951.41
2022-11-19T04:10:33.578Z,98955.56
2022-11-19T04:11:36.533Z,98955.09
2022-11-19T04:12:20.661Z,98952.25
2022-11-19T04:12:52.485Z,98956.06
2022-11-19T04:13:24.380Z,98960.06
2022-11-19T04:13:56.233Z,98954.53
2022-11-19T04:14:28.110Z,98957.06
2022-11-19T04:15:00.003Z,98962.22
2022-11-19T04:15:31.860Z,98965.81
2022-11-19T04:16:03.742Z,98970.16
2022-11-19T04:16:35.728Z,98969.75
2022-11-19T04:17:07.880Z,98971.84
2022-11-19T04:17:39.726Z,98976.62
2022-11-19T04:18:11.606Z,98990.03
2022-11-19T04:18:43.532Z,98985.50
2022-11-19T04:19:15.491Z,98977.56
2022-11-19T04:19:47.755Z,98982.28
2022-11-19T04:20:19.654Z,98980.13
2022-11-19T04:20:51.547Z,98981.13
2022-11-19T04:21:23.399Z,98973.19
2022-11-19T04:21:55.315Z,98969.03
2022-11-19T04:22:27.443Z,98970.63
2022-11-19T04:22:59.324Z,98973.81
2022-11-19T04:23:31.151Z,98970.22
2022-11-19T04:24:03.017Z,98978.53
2022-11-19T04:24:34.958Z,98972.94
2022-11-19T04:25:07.100Z,98981.66
2022-11-19T04:25:40.418Z,98978.66
2022-11-19T04:26:12.271Z,98982.81
2022-11-19T04:26:44.461Z,98989.75
2022-11-19T04:27:16.360Z,98990.81
2022-11-19T04:27:48.683Z,98993.63
2022-11-19T04:28:20.554Z,98993.56
2022-11-19T04:28:52.416Z,98993.53
2022-11-19T04:29:24.299Z,98997.13
2022-11-19T04:29:56.106Z,98998.97
2022-11-19T04:30:30.040Z,99001.06
2022-11-19T04:31:01.902Z,99005.50
2022-11-19T04:31:33.802Z,99009.13
2022-11-19T04:32:05.825Z,99011.00
2022-11-19T04:32:37.670Z,99010.50
2022-11-19T04:33:09.811Z,99010.50
2022-11-19T04:33:41.705Z,99008.88
2022-11-19T04:34:13.572Z,99017.13
2022-11-19T04:34:45.433Z,99007.78
2022-11-19T04:35:21.429Z,99009.75
2022-11-19T04:35:53.281Z,99013.19
2022-11-19T04:36:25.099Z,99015.03
2022-11-19T04:36:57.004Z,99010.09
2022-11-19T04:37:28.882Z,99023.09
2022-11-19T04:38:00.714Z,99019.34
2022-11-19T04:38:34.729Z,99014.06
2022-11-19T04:39:06.660Z,99024.19
2022-11-19T04:39:38.484Z,99025.00
2022-11-19T04:40:10.914Z,99022.44
2022-11-19T04:40:42.801Z,99022.69
2022-11-19T04:41:14.695Z,99030.53
2022-11-19T04:41:46.577Z,99024.16
2022-11-19T04:42:18.389Z,99028.31
2022-11-19T04:42:50.217Z,99027.47
2022-11-19T04:43:22.166Z,99026.13
2022-11-19T04:43:54.286Z,99024.72
2022-11-19T04:44:26.184Z,99025.31
2022-11-19T04:44:58.578Z,99033.37
2022-11-19T04:45:30.959Z,99036.34
2022-11-19T04:46:02.875Z,99028.59
2022-11-19T04:46:34.908Z,99031.75
2022-11-19T04:47:06.745Z,99034.78
2022-11-19T04:47:38.684Z,99033.19
2022-11-19T04:48:10.529Z,99043.97
2022-11-19T04:48:42.418Z,99051.50
2022-11-19T04:49:14.677Z,99036.84
2022-11-19T04:49:46.519Z,99049.50
2022-11-19T04:50:18.382Z,99049.84
2022-11-19T04:50:50.192Z,99051.84
2022-11-19T04:51:22.157Z,99055.37
2022-11-19T04:51:54.097Z,99052.69
2022-11-19T04:52:25.988Z,99060.31
2022-11-19T04:52:59.423Z,99057.72
2022-11-19T04:53:31.241Z,99059.22
2022-11-19T04:54:03.558Z,99063.34
2022-11-19T04:54:35.758Z,99066.53
2022-11-19T04:55:07.872Z,99061.81
2022-11-19T04:55:39.725Z,99064.75
2022-11-19T04:56:11.891Z,99066.59
2022-11-19T04:56:43.723Z,99068.31
2022-11-19T04:57:15.568Z,99068.06
2022-11-19T04:57:49.622Z,99073.84
2022-11-19T04:58:21.518Z,99077.31
2022-11-19T04:58:53.389Z,99073.31
2022-11-19T04:59:25.258Z,99076.25
2022-11-19T04:59:57.422Z,99077.22
2022-11-19T05:00:29.745Z,99079.00
2022-11-19T05:01:01.689Z,99083.03
2022-11-19T05:01:33.768Z,99084.34
2022-11-19T05:02:05.781Z,99082.16
2022-11-19T05:02:37.682Z,99087.34
2022-11-19T05:03:09.574Z,99087.78
2022-11-19T05:03:41.483Z,99081.88
2022-11-19T05:04:13.371Z,99083.56
2022-11-19T05:04:45.210Z,99087.66
2022-11-19T05:05:17.398Z,99093.22
2022-11-19T05:05:49.867Z,99088.84
2022-11-19T05:06:21.682Z,99091.72
2022-11-19T05:06:53.557Z,99094.41
2022-11-19T05:07:25.479Z,99087.78
2022-11-19T05:07:57.333Z,99091.44
2022-11-19T05:08:29.244Z,99088.09
2022-11-19T05:09:01.122Z,99090.78
2022-11-19T05:09:32.964Z,99087.19
2022-11-19T05:10:05.469Z,99084.56
2022-11-19T05:10:37.670Z,99091.94
2022-11-19T05:11:09.514Z,99087.19
2022-11-19T05:11:41.452Z,99086.78
2022-11-19T05:12:13.300Z,99091.19
2022-11-19T05:12:45.136Z,99089.13
2022-11-19T05:13:17.165Z,99086.41
2022-11-19T05:13:48.990Z,99087.13
2022-11-19T05:14:22.091Z,99094.25
2022-11-19T05:14:55.589Z,99088.09
2022-11-19T05:15:27.411Z,99089.47
2022-11-19T05:15:59.647Z,99101.37
2022-11-19T05:16:31.548Z,99097.09
2022-11-19T05:17:03.403Z,99098.41
2022-11-19T05:17:35.247Z,99101.44
2022-11-19T05:18:08.661Z,99099.81
2022-11-19T05:18:40.629Z,99101.91
2022-11-19T05:19:12.489Z,99108.22
2022-11-19T05:19:44.686Z,99111.28
2022-11-19T05:20:16.747Z,99105.53
2022-11-19T05:20:48.607Z,99111.19
2022-11-19T05:21:20.773Z,99114.03
2022-11-19T05:21:52.655Z,99114.78
2022-11-19T05:22:24.722Z,99112.09
2022-11-19T05:22:56.657Z,99113.41
2022-11-19T05:23:28.513Z,99116.53
2022-11-19T05:24:00.336Z,99116.53
2022-11-19T05:24:32.171Z,99112.44
2022-11-19T05:25:04.350Z,99114.94
2022-11-19T05:25:36.234Z,99113.69
2022-11-19T05:26:08.110Z,99110.75
2022-11-19T05:26:40.286Z,99114.12
2022-11-19T05:27:12.195Z,99117.41
2022-11-19T05:27:44.098Z,99119.44
2022-11-19T05:28:15.933Z,99115.44
2022-11-19T05:28:47.838Z,99114.44
2022-11-19T05:29:19.882Z,99116.22
2022-11-19T05:29:51.855Z,99114.81
2022-11-19T05:30:23.736Z,99120.97
2022-11-19T05:30:55.630Z,99118.56
2022-11-19T05:31:27.529Z,99119.81
2022-11-19T05:31:59.683Z,99125.69
2022-11-19T05:32:31.673Z,99127.06
2022-11-19T05:33:03.606Z,99133.75
2022-11-19T05:33:35.656Z,99137.03
2022-11-19T05:34:07.593Z,99129.03
2022-11-19T05:34:39.450Z,99132.34
2022-11-19T05:35:11.341Z,99128.34
2022-11-19T05:35:43.146Z,99137.94
2022-11-19T05:36:15.026Z,99139.72
2022-11-19T05:36:46.886Z,99130.72
2022-11-19T05:37:19.032Z,99135.78
2022-11-19T05:37:51.107Z,99137.50
2022-11-19T05:38:22.999Z,99139.03
2022-11-19T05:38:54.859Z,99141.16
2022-11-19T05:39:26.848Z,99131.53
2022-11-19T05:39:58.866Z,99130.28
2022-11-19T05:40:30.696Z,99134.72
2022-11-19T05:41:02.520Z,99128.91
2022-11-19T05:41:34.362Z,99129.19
2022-11-19T05:42:06.253Z,99124.28
2022-11-19T05:42:38.407Z,99131.44
2022-11-19T05:43:10.309Z,99130.06
2022-11-19T05:43:42.180Z,99130.94
2022-11-19T05:44:13.989Z,99129.53
2022-11-19T05:44:45.925Z,99128.38
2022-11-19T05:45:17.973Z,99128.72
2022-11-19T05:45:49.916Z,99129.69
2022-11-19T05:46:21.863Z,99135.31
2022-11-19T05:46:53.733Z,99135.84
2022-11-19T05:47:25.893Z,99129.81
2022-11-19T05:47:58.160Z,99132.16
2022-11-19T05:48:31.306Z,99136.34
2022-11-19T05:49:03.252Z,99136.84
2022-11-19T05:49:35.106Z,99137.75
2022-11-19T05:50:07.146Z,99135.16
2022-11-19T05:50:42.375Z,99137.19
2022-11-19T05:51:17.699Z,99147.87
2022-11-19T05:51:49.627Z,99146.31
2022-11-19T05:52:22.139Z,99145.94
2022-11-19T05:52:54.041Z,99140.47
2022-11-19T05:53:27.161Z,99147.87
2022-11-19T05:53:59.105Z,99156.63
2022-11-19T05:54:31.040Z,99149.88
2022-11-19T05:55:03.272Z,99162.06
2022-11-19T05:55:35.128Z,99150.50
2022-11-19T05:56:07.259Z,99154.06
2022-11-19T05:56:39.079Z,99143.66
2022-11-19T05:57:10.895Z,99148.37
2022-11-19T05:57:43.646Z,99154.87
2022-11-19T05:58:15.435Z,99150.44
2022-11-19T05:58:47.593Z,99138.41
2022-11-19T05:59:20.482Z,99141.63
2022-11-19T05:59:52.702Z,99148.25
2022-11-19T06:00:24.683Z,99138.53
2022-11-19T06:00:59.254Z,99143.94
2022-11-19T06:01:31.134Z,99147.87
2022-11-19T06:02:03.015Z,99157.00
2022-11-19T06:02:34.939Z,99153.69
2022-11-19T06:03:06.963Z,99152.34
2022-11-19T06:03:38.886Z,99160.69
2022-11-19T06:04:11.448Z,99155.37
2022-11-19T06:04:43.368Z,99148.41
2022-11-19T06:05:16.484Z,99144.16
2022-11-19T06:05:48.332Z,99155.37
2022-11-19T06:06:20.952Z,99155.22
2022-11-19T06:06:52.774Z,99153.97
2022-11-19T06:07:24.633Z,99161.19
2022-11-19T06:07:56.486Z,99153.78
2022-11-19T06:08:28.390Z,99164.44
2022-11-19T06:09:00.225Z,99169.53
2022-11-19T06:09:32.587Z,99168.72
2022-11-19T06:10:05.093Z,99176.38
2022-11-19T06:10:36.964Z,99175.38
2022-11-19T06:11:28.740Z,99176.91
2022-11-19T06:12:00.954Z,99178.75
2022-11-19T06:12:32.787Z,99182.25
2022-11-19T06:13:04.619Z,99182.72
2022-11-19T06:13:36.442Z,99178.97
2022-11-19T06:14:08.253Z,99188.31
2022-11-19T06:14:40.200Z,99189.94
2022-11-19T06:15:12.602Z,99181.28
2022-11-19T06:15:44.440Z,99185.72
2022-11-19T06:16:16.258Z,99187.50
2022-11-19T06:16:52.426Z,99187.94
2022-11-19T06:17:24.665Z,99187.22
2022-11-19T06:17:57.157Z,99184.75
2022-11-19T06:18:29.049Z,99184.31
2022-11-19T06:19:01.035Z,99183.50
2022-11-19T06:19:32.927Z,99183.50
2022-11-19T06:20:08.631Z,99175.50
2022-11-19T06:20:40.526Z,99173.88
2022-11-19T06:21:12.538Z,99177.09
2022-11-19T06:21:45.190Z,99176.66
2022-11-19T06:22:17.062Z,99184.22
2022-11-19T06:22:49.285Z,99182.62
2022-11-19T06:23:21.112Z,99187.06
2022-11-19T06:23:52.969Z,99190.47
2022-11-19T06:24:24.953Z,99191.25
2022-11-19T06:24:56.829Z,99200.59
2022-11-19T06:25:28.725Z,99199.72
2022-11-19T06:26:00.648Z,99206.75
2022-11-19T06:26:32.515Z,99205.69
2022-11-19T06:27:04.420Z,99210.38
2022-11-19T06:27:36.325Z,99211.38
2022-11-19T06:28:08.456Z,99214.31
2022-11-19T06:28:40.307Z,99224.22
2022-11-19T06:29:14.334Z,99223.13
2022-11-19T06:29:46.210Z,99217.66
2022-11-19T06:30:18.158Z,99222.81
2022-11-19T06:30:49.970Z,99218.75
2022-11-19T06:31:22.503Z,99212.47
2022-11-19T06:31:54.365Z,99217.84
2022-11-19T06:32:26.794Z,99216.56
2022-11-19T06:32:58.817Z,99212.03
2022-11-19T06:33:31.035Z,99215.13
2022-11-19T06:34:02.874Z,99208.53
2022-11-19T06:34:34.715Z,99209.63
2022-11-19T06:35:07.080Z,99207.78
2022-11-19T06:35:38.928Z,99213.22
2022-11-19T06:36:11.130Z,99214.09
2022-11-19T06:36:47.783Z,99215.34
2022-11-19T06:37:22.126Z,99220.16
2022-11-19T06:37:53.954Z,99221.03
2022-11-19T06:38:26.417Z,99220.28
2022-11-19T06:38:58.617Z,99213.16
2022-11-19T06:39:30.461Z,99221.94
2022-11-19T06:40:02.842Z,99217.38
2022-11-19T06:40:34.759Z,99217.19
2022-11-19T06:41:07.016Z,99209.00
2022-11-19T06:41:38.875Z,99205.19
2022-11-19T06:42:29.643Z,99212.16
2022-11-19T06:43:01.896Z,99206.91
2022-11-19T06:43:33.938Z,99210.66
2022-11-19T06:44:06.089Z,99210.84
2022-11-19T06:44:37.939Z,99210.56
2022-11-19T06:45:14.329Z,99206.97
2022-11-19T06:45:46.176Z,99218.84
2022-11-19T06:46:18.023Z,99218.69
2022-11-19T06:46:49.890Z,99219.31
2022-11-19T06:47:21.759Z,99229.50
2022-11-19T06:47:53.615Z,99224.00
2022-11-19T06:48:25.572Z,99226.91
2022-11-19T06:48:57.418Z,99227.91
2022-11-19T06:49:33.011Z,99234.31
2022-11-19T06:50:09.306Z,99238.31
2022-11-19T06:50:41.184Z,99232.69
2022-11-19T06:51:13.087Z,99239.94
2022-11-19T06:51:44.922Z,99242.78
2022-11-19T06:52:16.786Z,99237.59
2022-11-19T06:52:48.682Z,99237.41
2022-11-19T06:53:20.658Z,99234.03
2022-11-19T06:53:52.839Z,99228.59
2022-11-19T06:54:24.710Z,99228.63
2022-11-19T06:54:56.879Z,99233.19